createdAt,value
2023-02-23T00:04:32.837Z,97940.72
2023-02-23T00:09:59.830Z,97946.44
2023-02-23T00:15:27.838Z,97945.78
2023-02-23T00:20:54.884Z,97943.41
2023-02-23T00:26:27.860Z,97937.72
2023-02-23T00:31:56.051Z,97931.84
2023-02-23T00:37:21.860Z,97935.69
2023-02-23T00:42:46.882Z,97932.66
2023-02-23T00:48:16.878Z,97946.41
2023-02-23T00:53:41.850Z,97942.38
2023-02-23T00:59:05.853Z,97939.84
2023-02-23T01:04:33.892Z,97929.44
2023-02-23T01:09:57.880Z,97941.03
2023-02-23T01:15:23.035Z,97934.66
2023-02-23T01:20:50.915Z,97933.97
2023-02-23T01:26:20.908Z,97932.28
2023-02-23T01:31:46.032Z,97924.56
2023-02-23T01:37:14.872Z,97922.19
2023-02-23T01:42:38.933Z,97924.88
2023-02-23T01:48:07.883Z,97916.81
2023-02-23T01:53:40.920Z,97918.50
2023-02-23T01:59:06.912Z,97920.84
2023-02-23T02:04:32.925Z,97922.69
2023-02-23T02:10:15.917Z,97921.50
2023-02-23T02:15:45.958Z,97908.41
2023-02-23T02:21:50.896Z,97910.03
2023-02-23T02:27:43.922Z,97907.53
2023-02-23T02:33:38.922Z,97911.22
2023-02-23T02:39:16.942Z,97907.03
2023-02-23T02:44:50.898Z,97909.03
2023-02-23T02:50:21.928Z,97903.81
2023-02-23T02:55:54.945Z,97911.03
2023-02-23T03:01:38.065Z,97907.66
2023-02-23T03:07:25.946Z,97905.28
2023-02-23T03:13:13.923Z,97899.59
2023-02-23T03:19:03.956Z,97907.63
2023-02-23T03:24:52.936Z,97907.28
2023-02-23T03:30:42.026Z,97915.31
2023-02-23T03:36:23.977Z,97916.78
2023-02-23T03:42:05.950Z,97924.59
2023-02-23T03:47:46.978Z,97921.19
2023-02-23T03:53:26.950Z,97924.38
2023-02-23T03:59:08.982Z,97924.34
2023-02-23T04:04:51.051Z,97935.84
2023-02-23T04:10:27.973Z,97930.09
2023-02-23T04:15:57.971Z,97941.13
2023-02-23T04:21:24.956Z,97942.13
2023-02-23T04:26:55.997Z,97939.63
2023-02-23T04:32:24.147Z,97937.09
2023-02-23T04:37:50.963Z,97937.94
2023-02-23T04:43:16.062Z,97939.63
2023-02-23T04:48:41.007Z,97942.47
2023-02-23T04:54:09.005Z,97940.78
2023-02-23T04:59:32.972Z,97944.78
2023-02-23T05:04:58.062Z,97950.13
2023-02-23T05:10:27.044Z,97949.31
2023-02-23T05:15:52.048Z,97955.50
2023-02-23T05:21:21.139Z,97958.34
2023-02-23T05:26:48.998Z,97964.88
2023-02-23T05:32:13.116Z,97959.81
2023-02-23T05:37:37.999Z,97956.13
2023-02-23T05:43:05.022Z,97957.13
2023-02-23T05:48:30.038Z,97955.44
2023-02-23T05:53:56.029Z,97970.84
2023-02-23T05:59:24.032Z,97974.22
2023-02-23T06:04:49.029Z,97975.38
2023-02-23T06:10:16.022Z,97979.06
2023-02-23T06:15:46.057Z,97990.63
2023-02-23T06:21:13.073Z,97988.63
2023-02-23T06:26:38.055Z,97994.16
2023-02-23T06:32:07.168Z,97995.16
2023-02-23T06:37:37.038Z,98000.34
2023-02-23T06:43:02.021Z,97996.66
2023-02-23T06:48:29.136Z,97998.19
2023-02-23T06:53:54.163Z,98011.47
2023-02-23T06:59:18.043Z,98015.69
2023-02-23T07:04:46.100Z,98017.19
2023-02-23T07:10:11.077Z,98022.41
2023-02-23T07:15:36.148Z,98024.09
2023-02-23T07:21:03.039Z,98018.28
2023-02-23T07:26:28.053Z,98027.69
2023-02-23T07:31:53.338Z,98023.88
2023-02-23T07:37:21.070Z,98027.91
2023-02-23T07:42:45.059Z,98026.75
2023-02-23T07:48:11.083Z,98016.56
2023-02-23T07:53:40.102Z,98030.50
2023-02-23T07:59:05.081Z,98026.88
2023-02-23T08:04:29.115Z,98027.09
2023-02-23T08:09:58.084Z,98038.44
2023-02-23T08:15:23.098Z,98041.88
2023-02-23T08:20:48.109Z,98038.94
2023-02-23T08:26:22.078Z,98036.63
2023-02-23T08:31:47.284Z,98034.19
2023-02-23T08:37:11.152Z,98037.59
2023-02-23T08:42:39.080Z,98029.38
2023-02-23T08:48:03.120Z,98022.88
2023-02-23T08:53:30.086Z,98029.81
2023-02-23T08:58:59.102Z,98038.22
2023-02-23T09:04:25.118Z,98033.22
2023-02-23T09:09:49.108Z,98030.88
2023-02-23T09:15:18.119Z,98030.25
2023-02-23T09:20:42.109Z,98023.34
2023-02-23T09:26:07.117Z,98027.03
2023-02-23T09:31:36.193Z,98031.09
2023-02-23T09:37:02.203Z,98033.28
2023-02-23T09:42:41.157Z,98031.59
2023-02-23T09:48:21.167Z,98043.03
2023-02-23T09:53:52.142Z,98040.31
2023-02-23T09:59:22.208Z,98037.06
2023-02-23T10:04:57.503Z,98031.16
2023-02-23T10:10:31.182Z,98028.41
2023-02-23T10:16:02.223Z,98025.97
2023-02-23T10:21:37.232Z,98030.16
2023-02-23T10:27:12.158Z,98030.31
2023-02-23T10:32:47.150Z,98022.06
2023-02-23T10:38:16.178Z,98023.84
2023-02-23T10:43:42.200Z,98026.66
2023-02-23T10:49:08.200Z,98017.41
2023-02-23T10:54:54.177Z,98012.03
2023-02-23T11:00:37.204Z,98016.34
2023-02-23T11:06:02.210Z,98006.88
2023-02-23T11:11:41.153Z,97999.47
2023-02-23T11:17:09.164Z,97995.00
2023-02-23T11:22:36.204Z,98001.47
2023-02-23T11:28:10.199Z,97987.41
2023-02-23T11:33:42.190Z,97985.34
2023-02-23T11:39:17.217Z,97987.38
2023-02-23T11:44:45.179Z,97978.66
2023-02-23T11:50:10.215Z,97975.50
2023-02-23T11:55:35.190Z,97973.03
2023-02-23T12:01:11.215Z,97971.97
2023-02-23T12:06:40.312Z,97964.56
2023-02-23T12:12:10.230Z,97966.59
2023-02-23T12:17:43.193Z,97956.94
2023-02-23T12:23:12.204Z,97958.75
2023-02-23T12:28:49.220Z,97959.84
2023-02-23T12:34:23.220Z,97951.94
2023-02-23T12:39:51.278Z,97953.41
2023-02-23T12:45:27.305Z,97940.28
2023-02-23T12:50:59.220Z,97946.81
2023-02-23T12:56:43.246Z,97945.56
2023-02-23T13:02:13.299Z,97949.59
2023-02-23T13:07:53.969Z,97944.25
2023-02-23T13:13:34.235Z,97951.94
2023-02-23T13:19:16.280Z,97943.91
2023-02-23T13:24:49.273Z,97933.38
2023-02-23T13:30:18.267Z,97943.91
2023-02-23T13:35:45.261Z,97939.59
2023-02-23T13:41:26.304Z,97939.13
2023-02-23T13:47:01.287Z,97938.34
2023-02-23T13:52:36.274Z,97941.28
2023-02-23T13:58:04.280Z,97942.63
2023-02-23T14:03:34.397Z,97933.41
2023-02-23T14:09:07.277Z,97943.38
2023-02-23T14:14:51.253Z,97950.53
2023-02-23T14:20:30.290Z,97951.41
2023-02-23T14:26:00.331Z,97952.75
2023-02-23T14:31:37.490Z,97961.16
2023-02-23T14:37:03.289Z,97964.06
2023-02-23T14:42:37.294Z,97967.75
2023-02-23T14:48:09.328Z,97968.63
2023-02-23T14:53:38.316Z,97966.94
2023-02-23T14:59:05.312Z,97971.81
2023-02-23T15:04:34.359Z,97973.84
2023-02-23T15:10:02.338Z,97983.59
2023-02-23T15:15:33.312Z,97975.53
2023-02-23T15:21:01.304Z,97973.19
2023-02-23T15:26:32.303Z,97971.34
2023-02-23T15:31:59.480Z,97970.66
2023-02-23T15:37:31.363Z,97986.81
2023-02-23T15:42:59.340Z,97981.44
2023-02-23T15:48:29.357Z,97987.81
2023-02-23T15:53:58.377Z,97984.47
2023-02-23T15:59:30.367Z,97980.41
2023-02-23T16:04:59.384Z,97975.53
2023-02-23T16:10:37.392Z,97982.28
2023-02-23T16:16:05.578Z,97980.28
2023-02-23T16:21:34.334Z,97986.00
2023-02-23T16:27:11.478Z,97989.03
2023-02-23T16:32:44.447Z,97985.81
2023-02-23T16:38:17.340Z,97979.94
2023-02-23T16:43:46.578Z,97970.66
2023-02-23T16:49:16.455Z,97964.97
2023-02-23T16:54:41.426Z,97966.13
2023-02-23T17:00:21.469Z,97972.00
2023-02-23T17:05:46.374Z,97968.31
2023-02-23T17:11:10.401Z,97968.31
2023-02-23T17:16:38.418Z,97967.47
2023-02-23T17:22:03.376Z,97964.94
2023-02-23T17:27:34.403Z,97974.69
2023-02-23T17:33:04.504Z,97981.59
2023-02-23T17:38:29.395Z,97985.94
2023-02-23T17:43:55.406Z,97984.13
2023-02-23T17:49:22.397Z,97983.25
2023-02-23T17:54:47.380Z,97986.97
2023-02-23T18:00:13.399Z,97989.81
2023-02-23T18:05:41.453Z,97992.81
2023-02-23T18:11:07.432Z,97994.69
2023-02-23T18:16:32.413Z,97994.84
2023-02-23T18:22:02.427Z,97996.19
2023-02-23T18:27:27.400Z,97995.50
2023-02-23T18:32:51.491Z,97996.34
2023-02-23T18:38:23.421Z,97991.13
2023-02-23T18:43:47.536Z,97988.63
2023-02-23T18:49:15.457Z,97982.56
2023-02-23T18:54:47.486Z,97981.72
2023-02-23T19:00:19.491Z,97985.41
2023-02-23T19:05:50.998Z,97990.94
2023-02-23T19:11:20.790Z,97984.75
2023-02-23T19:16:47.471Z,97983.22
2023-02-23T19:22:12.462Z,97987.75
2023-02-23T19:27:40.438Z,97978.84
2023-02-23T19:33:05.547Z,97986.22
2023-02-23T19:38:36.423Z,97975.47
2023-02-23T19:44:05.433Z,97987.06
2023-02-23T19:49:32.446Z,97981.69
2023-02-23T19:54:57.477Z,97998.91
2023-02-23T20:00:26.463Z,98001.28
2023-02-23T20:05:51.454Z,98001.69
2023-02-23T20:11:16.476Z,97990.44
2023-02-23T20:16:44.520Z,97983.56
2023-02-23T20:22:08.468Z,97991.72
2023-02-23T20:27:36.506Z,97988.91
2023-02-23T20:33:03.468Z,97999.03
2023-02-23T20:38:34.561Z,98014.50
2023-02-23T20:43:59.458Z,98009.25
2023-02-23T20:49:29.484Z,98019.47
2023-02-23T20:54:54.530Z,98013.41
2023-02-23T21:00:27.539Z,98023.06
2023-02-23T21:05:55.483Z,98024.00
2023-02-23T21:11:20.835Z,98033.53
2023-02-23T21:16:52.503Z,98041.34
2023-02-23T21:22:22.504Z,98047.34
2023-02-23T21:27:49.500Z,98041.56
2023-02-23T21:33:13.497Z,98041.88
2023-02-23T21:38:47.510Z,98052.22
2023-02-23T21:44:14.501Z,98050.31
2023-02-23T21:49:38.524Z,98046.09
2023-02-23T21:55:13.182Z,98029.31
2023-02-23T22:00:46.565Z,98037.34
2023-02-23T22:06:11.572Z,98042.31
2023-02-23T22:11:43.583Z,98055.94
2023-02-23T22:17:10.578Z,98058.38
2023-02-23T22:22:34.504Z,98064.63
2023-02-23T22:28:02.584Z,98060.88
2023-02-23T22:33:27.621Z,98054.00
2023-02-23T22:38:58.592Z,98056.81
2023-02-23T22:44:29.528Z,98058.25
2023-02-23T22:49:53.576Z,98068.25
2023-02-23T22:55:19.525Z,98058.84
2023-02-23T23:00:46.517Z,98058.84
2023-02-23T23:06:11.612Z,98062.66
2023-02-23T23:11:38.584Z,98071.81
2023-02-23T23:17:06.591Z,98064.25
2023-02-23T23:22:31.591Z,98072.00
2023-02-23T23:27:58.543Z,98072.75
2023-02-23T23:33:25.536Z,98066.56
2023-02-23T23:38:56.574Z,98066.00
2023-02-23T23:44:23.598Z,98067.84
2023-02-23T23:49:52.572Z,98065.16
2023-02-23T23:55:17.592Z,98057.56
